createdAt,value
2023-01-29T00:02:02.993Z,102317.19
2023-01-29T00:04:29.468Z,102322.22
2023-01-29T00:06:55.833Z,102319.13
2023-01-29T00:09:22.207Z,102318.38
2023-01-29T00:11:48.683Z,102314.88
2023-01-29T00:14:15.039Z,102314.88
2023-01-29T00:16:41.484Z,102310.97
2023-01-29T00:19:07.919Z,102308.25
2023-01-29T00:21:34.339Z,102313.31
2023-01-29T00:24:00.732Z,102308.66
2023-01-29T00:26:27.129Z,102301.63
2023-01-29T00:28:53.496Z,102301.63
2023-01-29T00:31:20.041Z,102304.34
2023-01-29T00:33:46.500Z,102308.66
2023-01-29T00:36:12.858Z,102303.22
2023-01-29T00:38:39.228Z,102299.34
2023-01-29T00:41:05.605Z,102299.72
2023-01-29T00:43:31.962Z,102300.09
2023-01-29T00:45:58.318Z,102295.03
2023-01-29T00:48:24.694Z,102291.53
2023-01-29T00:50:54.056Z,102286.53
2023-01-29T00:53:20.443Z,102295.84
2023-01-29T00:55:46.816Z,102301.63
2023-01-29T00:58:13.171Z,102297.78
2023-01-29T01:00:39.698Z,102294.69
2023-01-29T01:03:06.114Z,102290.78
2023-01-29T01:05:32.490Z,102294.31
2023-01-29T01:07:58.877Z,102293.16
2023-01-29T01:10:25.223Z,102290.81
2023-01-29T01:12:51.571Z,102288.88
2023-01-29T01:15:18.041Z,102282.28
2023-01-29T01:17:44.408Z,102290.81
2023-01-29T01:20:10.745Z,102290.03
2023-01-29T01:22:37.101Z,102285.78
2023-01-29T01:25:03.508Z,102294.69
2023-01-29T01:27:29.874Z,102286.16
2023-01-29T01:29:56.238Z,102284.59
2023-01-29T01:32:22.611Z,102288.09
2023-01-29T01:34:48.982Z,102298.56
2023-01-29T01:37:15.370Z,102292.75
2023-01-29T01:39:41.774Z,102293.94
2023-01-29T01:42:08.140Z,102288.50
2023-01-29T01:44:34.492Z,102288.09
2023-01-29T01:47:00.866Z,102291.59
2023-01-29T01:49:27.237Z,102288.09
2023-01-29T01:51:53.594Z,102300.50
2023-01-29T01:54:19.986Z,102305.53
2023-01-29T01:56:46.355Z,102297.00
2023-01-29T01:59:12.717Z,102295.84
2023-01-29T02:01:39.090Z,102298.13
2023-01-29T02:04:05.484Z,102297.38
2023-01-29T02:06:31.868Z,102302.44
2023-01-29T02:08:58.236Z,102304.00
2023-01-29T02:11:24.639Z,102305.16
2023-01-29T02:13:51.015Z,102306.31
2023-01-29T02:16:17.374Z,102308.25
2023-01-29T02:18:43.766Z,102307.88
2023-01-29T02:21:10.115Z,102302.44
2023-01-29T02:23:36.607Z,102304.00
2023-01-29T02:26:03.020Z,102312.94
2023-01-29T02:28:29.401Z,102306.31
2023-01-29T02:30:55.778Z,102304.38
2023-01-29T02:33:22.181Z,102306.31
2023-01-29T02:35:48.602Z,102310.22
2023-01-29T02:38:14.959Z,102308.63
2023-01-29T02:40:41.330Z,102310.19
2023-01-29T02:43:07.854Z,102309.81
2023-01-29T02:45:34.231Z,102302.81
2023-01-29T02:48:00.613Z,102296.19
2023-01-29T02:50:26.965Z,102293.13
2023-01-29T02:52:53.328Z,102288.88
2023-01-29T02:55:19.688Z,102284.22
2023-01-29T02:57:46.052Z,102290.44
2023-01-29T03:00:12.447Z,102283.44
2023-01-29T03:02:38.853Z,102281.88
2023-01-29T03:05:05.260Z,102278.78
2023-01-29T03:07:31.626Z,102258.97
2023-01-29T03:09:57.977Z,102265.22
2023-01-29T03:12:24.352Z,102267.50
2023-01-29T03:14:50.722Z,102267.53
2023-01-29T03:17:17.087Z,102266.00
2023-01-29T03:19:43.470Z,102268.69
2023-01-29T03:22:09.865Z,102268.66
2023-01-29T03:24:36.241Z,102262.84
2023-01-29T03:27:02.621Z,102272.19
2023-01-29T03:29:28.991Z,102266.00
2023-01-29T03:31:55.403Z,102269.06
2023-01-29T03:34:21.907Z,102271.78
2023-01-29T03:36:48.279Z,102268.31
2023-01-29T03:39:14.654Z,102265.59
2023-01-29T03:41:41.022Z,102266.34
2023-01-29T03:44:07.481Z,102267.53
2023-01-29T03:46:33.860Z,102273.69
2023-01-29T03:49:00.224Z,102267.53
2023-01-29T03:51:26.597Z,102261.34
2023-01-29T03:53:52.953Z,102265.22
2023-01-29T03:56:19.316Z,102262.50
2023-01-29T03:58:45.689Z,102263.63
2023-01-29T04:01:12.204Z,102262.47
2023-01-29T04:03:38.643Z,102259.78
2023-01-29T04:06:05.025Z,102264.81
2023-01-29T04:08:31.413Z,102263.63
2023-01-29T04:10:57.791Z,102263.63
2023-01-29T04:13:24.149Z,102261.31
2023-01-29T04:15:50.536Z,102259.00
2023-01-29T04:18:16.925Z,102256.66
2023-01-29T04:20:43.303Z,102247.31
2023-01-29T04:23:09.703Z,102256.66
2023-01-29T04:25:36.078Z,102261.31
2023-01-29T04:28:02.468Z,102267.50
2023-01-29T04:30:28.857Z,102269.84
2023-01-29T04:32:55.241Z,102263.63
2023-01-29T04:35:21.625Z,102273.31
2023-01-29T04:37:47.989Z,102279.13
2023-01-29T04:40:14.695Z,102272.16
2023-01-29T04:42:41.318Z,102262.09
2023-01-29T04:45:07.679Z,102262.09
2023-01-29T04:47:34.107Z,102280.69
2023-01-29T04:50:00.496Z,102276.41
2023-01-29T04:52:26.856Z,102278.38
2023-01-29T04:54:53.213Z,102276.41
2023-01-29T04:57:19.575Z,102279.53
2023-01-29T04:59:45.957Z,102283.41
2023-01-29T05:02:12.325Z,102286.91
2023-01-29T05:04:38.729Z,102283.81
2023-01-29T05:07:05.091Z,102281.47
2023-01-29T05:09:31.463Z,102273.69
2023-01-29T05:11:57.932Z,102277.19
2023-01-29T05:14:24.297Z,102282.63
2023-01-29T05:16:50.663Z,102284.19
2023-01-29T05:19:17.051Z,102275.66
2023-01-29T05:21:43.435Z,102270.59
2023-01-29T05:24:09.850Z,102269.03
2023-01-29T05:26:36.259Z,102264.41
2023-01-29T05:29:02.630Z,102257.81
2023-01-29T05:31:29.093Z,102258.59
2023-01-29T05:33:55.510Z,102263.25
2023-01-29T05:36:21.867Z,102261.69
2023-01-29T05:38:48.242Z,102251.97
2023-01-29T05:41:14.611Z,102251.97
2023-01-29T05:43:41.005Z,102258.97
2023-01-29T05:46:07.381Z,102273.31
2023-01-29T05:48:33.766Z,102267.50
2023-01-29T05:51:00.135Z,102270.97
2023-01-29T05:53:26.480Z,102273.69
2023-01-29T05:55:52.849Z,102264.00
2023-01-29T05:58:19.203Z,102267.50
2023-01-29T06:00:45.580Z,102267.09
2023-01-29T06:03:11.999Z,102261.69
2023-01-29T06:05:38.410Z,102270.97
2023-01-29T06:08:04.785Z,102270.59
2023-01-29T06:10:31.163Z,102277.59
2023-01-29T06:12:57.552Z,102271.75
2023-01-29T06:15:23.944Z,102275.25
2023-01-29T06:17:50.419Z,102280.31
2023-01-29T06:20:16.934Z,102280.69
2023-01-29T06:22:43.484Z,102279.91
2023-01-29T06:25:09.909Z,102273.69
2023-01-29T06:27:37.410Z,102286.50
2023-01-29T06:30:03.824Z,102284.53
2023-01-29T06:32:30.232Z,102291.16
2023-01-29T06:34:56.596Z,102297.38
2023-01-29T06:37:22.964Z,102298.53
2023-01-29T06:39:49.336Z,102296.97
2023-01-29T06:42:15.731Z,102293.88
2023-01-29T06:44:42.089Z,102295.41
2023-01-29T06:47:08.456Z,102293.88
2023-01-29T06:49:34.841Z,102290.75
2023-01-29T06:52:01.203Z,102293.88
2023-01-29T06:54:27.561Z,102289.97
2023-01-29T06:56:53.944Z,102285.72
2023-01-29T06:59:20.336Z,102290.38
2023-01-29T07:01:46.794Z,102294.66
2023-01-29T07:04:13.246Z,102294.25
2023-01-29T07:06:39.655Z,102296.97
2023-01-29T07:09:06.012Z,102299.28
2023-01-29T07:11:32.390Z,102295.81
2023-01-29T07:13:58.775Z,102294.66
2023-01-29T07:16:25.260Z,102302.03
2023-01-29T07:18:51.668Z,102300.84
2023-01-29T07:21:18.052Z,102295.03
2023-01-29T07:23:44.443Z,102294.25
2023-01-29T07:26:10.799Z,102295.81
2023-01-29T07:28:37.162Z,102292.69
2023-01-29T07:31:03.581Z,102295.41
2023-01-29T07:33:30.074Z,102293.88
2023-01-29T07:35:56.478Z,102299.31
2023-01-29T07:38:22.845Z,102301.63
2023-01-29T07:40:49.211Z,102299.66
2023-01-29T07:43:15.557Z,102300.84
2023-01-29T07:45:42.063Z,102296.97
2023-01-29T07:48:08.501Z,102296.19
2023-01-29T07:50:34.987Z,102298.53
2023-01-29T07:53:01.358Z,102296.97
2023-01-29T07:55:27.789Z,102305.50
2023-01-29T07:57:54.151Z,102308.63
2023-01-29T08:00:20.517Z,102302.03
2023-01-29T08:02:46.888Z,102299.34
2023-01-29T08:05:13.261Z,102291.59
2023-01-29T08:07:39.626Z,102290.03
2023-01-29T08:10:06.027Z,102293.94
2023-01-29T08:12:32.386Z,102287.72
2023-01-29T08:14:58.761Z,102297.41
2023-01-29T08:17:25.141Z,102300.13
2023-01-29T08:19:51.539Z,102300.13
2023-01-29T08:22:17.931Z,102297.41
2023-01-29T08:24:53.789Z,102293.91
2023-01-29T08:27:26.496Z,102287.69
2023-01-29T08:29:52.848Z,102290.03
2023-01-29T08:32:19.235Z,102285.00
2023-01-29T08:34:45.614Z,102287.72
2023-01-29T08:37:12.007Z,102286.53
2023-01-29T08:39:38.388Z,102291.94
2023-01-29T08:42:04.763Z,102284.56
2023-01-29T08:44:31.125Z,102293.50
2023-01-29T08:46:57.489Z,102298.16
2023-01-29T08:49:23.846Z,102300.09
2023-01-29T08:51:50.216Z,102300.88
2023-01-29T08:54:16.609Z,102309.78
2023-01-29T08:56:42.984Z,102308.25
2023-01-29T08:59:09.381Z,102310.19
2023-01-29T09:01:35.791Z,102324.53
2023-01-29T09:04:02.151Z,102335.41
2023-01-29T09:06:28.558Z,102331.16
2023-01-29T09:08:54.916Z,102341.63
2023-01-29T09:11:21.288Z,102330.38
2023-01-29T09:13:47.669Z,102346.28
2023-01-29T09:16:14.075Z,102337.34
2023-01-29T09:18:40.475Z,102329.59
2023-01-29T09:21:06.947Z,102336.97
2023-01-29T09:23:33.307Z,102332.31
2023-01-29T09:25:59.686Z,102335.41
2023-01-29T09:28:26.066Z,102322.59
2023-01-29T09:30:52.538Z,102328.03
2023-01-29T09:33:18.944Z,102321.81
2023-01-29T09:35:45.317Z,102324.94
2023-01-29T09:38:11.680Z,102331.53
2023-01-29T09:40:38.060Z,102324.94
2023-01-29T09:43:04.448Z,102325.31
2023-01-29T09:45:30.828Z,102325.72
2023-01-29T09:47:57.173Z,102327.25
2023-01-29T09:50:23.646Z,102330.38
2023-01-29T09:52:50.032Z,102330.34
2023-01-29T09:55:16.697Z,102328.03
2023-01-29T09:57:43.290Z,102314.84
2023-01-29T10:00:09.671Z,102327.66
2023-01-29T10:02:36.044Z,102327.25
2023-01-29T10:05:02.411Z,102334.63
2023-01-29T10:07:28.774Z,102340.47
2023-01-29T10:09:55.131Z,102335.41
2023-01-29T10:12:21.494Z,102330.38
2023-01-29T10:14:47.854Z,102323.75
2023-01-29T10:17:14.249Z,102325.72
2023-01-29T10:19:40.651Z,102327.66
2023-01-29T10:22:07.007Z,102315.22
2023-01-29T10:24:33.358Z,102315.59
2023-01-29T10:26:59.743Z,102318.31
2023-01-29T10:29:26.137Z,102314.44
2023-01-29T10:31:52.674Z,102309.78
2023-01-29T10:34:19.093Z,102305.50
2023-01-29T10:36:45.447Z,102303.19
2023-01-29T10:39:11.833Z,102302.00
2023-01-29T10:41:38.201Z,102293.47
2023-01-29T10:44:04.588Z,102290.38
2023-01-29T10:46:30.953Z,102277.53
2023-01-29T10:48:57.332Z,102284.53
2023-01-29T10:51:23.699Z,102277.53
2023-01-29T10:53:50.088Z,102280.66
2023-01-29T10:56:22.772Z,102273.28
2023-01-29T10:58:49.604Z,102270.16
2023-01-29T11:01:16.030Z,102266.66
2023-01-29T11:03:42.514Z,102270.16
2023-01-29T11:06:08.923Z,102269.34
2023-01-29T11:08:35.277Z,102267.03
2023-01-29T11:11:01.851Z,102266.66
2023-01-29T11:13:28.222Z,102268.22
2023-01-29T11:15:54.589Z,102272.84
2023-01-29T11:18:20.975Z,102260.06
2023-01-29T11:20:47.353Z,102258.91
2023-01-29T11:23:13.753Z,102262.00
2023-01-29T11:25:40.127Z,102258.91
2023-01-29T11:28:06.492Z,102254.63
2023-01-29T11:30:32.893Z,102246.09
2023-01-29T11:32:59.241Z,102256.22
2023-01-29T11:35:25.593Z,102251.16
2023-01-29T11:37:51.987Z,102249.19
2023-01-29T11:40:18.586Z,102249.63
2023-01-29T11:42:45.186Z,102247.66
2023-01-29T11:45:11.587Z,102231.78
2023-01-29T11:47:38.138Z,102236.44
2023-01-29T11:50:04.667Z,102232.56
2023-01-29T11:52:31.036Z,102234.50
2023-01-29T11:55:00.121Z,102225.91
2023-01-29T11:57:26.512Z,102224.41
2023-01-29T11:59:52.908Z,102232.56
2023-01-29T12:02:19.271Z,102230.22
2023-01-29T12:04:45.636Z,102229.84
2023-01-29T12:07:12.106Z,102234.84
2023-01-29T12:09:38.462Z,102233.31
2023-01-29T12:12:04.810Z,102226.34
2023-01-29T12:14:31.192Z,102224.41
2023-01-29T12:16:57.659Z,102226.34
2023-01-29T12:19:24.057Z,102234.06
2023-01-29T12:21:50.413Z,102226.69
2023-01-29T12:24:16.748Z,102227.91
2023-01-29T12:26:43.163Z,102224.44
2023-01-29T12:29:09.612Z,102226.34
2023-01-29T12:31:36.134Z,102215.09
2023-01-29T12:34:02.522Z,102222.06
2023-01-29T12:36:28.891Z,102220.91
2023-01-29T12:38:55.269Z,102205.41
2023-01-29T12:41:21.658Z,102202.28
2023-01-29T12:43:48.028Z,102194.53
2023-01-29T12:46:14.403Z,102191.41
2023-01-29T12:48:40.779Z,102179.75
2023-01-29T12:51:07.167Z,102182.88
2023-01-29T12:53:33.548Z,102172.00
2023-01-29T12:55:59.917Z,102165.03
2023-01-29T12:58:26.281Z,102165.03
2023-01-29T13:00:52.696Z,102158.78
2023-01-29T13:03:19.141Z,102158.78
2023-01-29T13:05:45.586Z,102152.19
2023-01-29T13:08:11.966Z,102153.75
2023-01-29T13:10:38.329Z,102145.56
2023-01-29T13:13:04.677Z,102147.53
2023-01-29T13:15:31.061Z,102149.09
2023-01-29T13:17:57.441Z,102133.94
2023-01-29T13:20:23.849Z,102131.22
2023-01-29T13:22:50.239Z,102128.13
2023-01-29T13:25:16.618Z,102130.47
2023-01-29T13:27:43.002Z,102121.16
2023-01-29T13:30:09.459Z,102116.84
2023-01-29T13:32:35.853Z,102109.88
2023-01-29T13:35:02.188Z,102115.31
2023-01-29T13:37:28.660Z,102106.41
2023-01-29T13:39:55.032Z,102103.69
2023-01-29T13:42:21.390Z,102099.44
2023-01-29T13:44:47.784Z,102102.13
2023-01-29T13:47:14.154Z,102098.22
2023-01-29T13:49:40.514Z,102099.44
2023-01-29T13:52:06.976Z,102091.66
2023-01-29T13:54:33.337Z,102085.84
2023-01-29T13:56:59.705Z,102083.13
2023-01-29T13:59:26.082Z,102080.44
2023-01-29T14:01:52.413Z,102075.38
2023-01-29T14:04:18.787Z,102069.13
2023-01-29T14:06:45.171Z,102058.28
2023-01-29T14:09:11.542Z,102052.50
2023-01-29T14:11:37.954Z,102056.75
2023-01-29T14:14:04.349Z,102048.94
2023-01-29T14:16:30.823Z,102048.59
2023-01-29T14:18:57.227Z,102042.00
2023-01-29T14:21:23.572Z,102048.22
2023-01-29T14:23:49.957Z,102048.97
2023-01-29T14:26:16.345Z,102038.13
2023-01-29T14:28:42.739Z,102040.06
2023-01-29T14:31:09.196Z,102042.00
2023-01-29T14:33:35.640Z,102035.84
2023-01-29T14:36:02.010Z,102034.28
2023-01-29T14:38:28.423Z,102031.13
2023-01-29T14:40:54.778Z,102027.63
2023-01-29T14:43:21.146Z,102017.91
2023-01-29T14:45:47.550Z,102011.72
2023-01-29T14:48:13.923Z,102012.47
2023-01-29T14:50:40.314Z,102012.13
2023-01-29T14:53:06.689Z,102017.53
2023-01-29T14:55:33.058Z,102013.28
2023-01-29T14:57:59.415Z,102011.72
2023-01-29T15:00:25.808Z,102014.81
2023-01-29T15:03:01.425Z,102022.97
2023-01-29T15:05:28.471Z,102014.09
2023-01-29T15:07:54.828Z,102011.75
2023-01-29T15:10:23.099Z,102010.22
2023-01-29T15:12:49.761Z,102012.53
2023-01-29T15:15:16.467Z,102016.06
2023-01-29T15:17:42.990Z,102012.94
2023-01-29T15:20:09.361Z,102017.59
2023-01-29T15:22:35.742Z,102013.69
2023-01-29T15:25:02.147Z,102020.72
2023-01-29T15:27:28.542Z,102016.41
2023-01-29T15:29:54.925Z,102019.94
2023-01-29T15:32:21.308Z,102021.88
2023-01-29T15:34:47.720Z,102022.28
2023-01-29T15:37:14.103Z,102022.66
2023-01-29T15:39:40.461Z,102022.28
2023-01-29T15:42:07.011Z,102028.09
2023-01-29T15:44:33.369Z,102031.97
2023-01-29T15:46:59.816Z,102036.25
2023-01-29T15:49:26.248Z,102025.75
2023-01-29T15:51:52.600Z,102034.66
2023-01-29T15:54:18.968Z,102037.81
2023-01-29T15:56:45.355Z,102030.47
2023-01-29T15:59:11.711Z,102033.53
2023-01-29T16:01:38.167Z,102030.81
2023-01-29T16:04:04.621Z,102035.47
2023-01-29T16:06:31.016Z,102032.00
2023-01-29T16:08:57.379Z,102035.13
2023-01-29T16:11:23.728Z,102034.72
2023-01-29T16:13:50.075Z,102033.56
2023-01-29T16:16:16.544Z,102035.47
2023-01-29T16:18:57.798Z,102030.84
2023-01-29T16:21:25.527Z,102023.06
2023-01-29T16:23:52.004Z,102025.03
2023-01-29T16:26:18.426Z,102029.69
2023-01-29T16:28:44.795Z,102032.41
2023-01-29T16:31:11.342Z,102026.19
2023-01-29T16:33:37.790Z,102034.34
2023-01-29T16:36:04.239Z,102034.72
2023-01-29T16:38:30.592Z,102035.09
2023-01-29T16:40:56.976Z,102037.03
2023-01-29T16:43:28.154Z,102043.63
2023-01-29T16:45:54.875Z,102046.34
2023-01-29T16:48:21.251Z,102044.03
2023-01-29T16:50:54.964Z,102044.78
2023-01-29T16:53:21.781Z,102040.94
2023-01-29T16:55:48.212Z,102046.75
2023-01-29T16:58:14.568Z,102058.78
2023-01-29T17:00:40.963Z,102054.88
2023-01-29T17:03:07.363Z,102045.19
2023-01-29T17:05:33.718Z,102059.16
2023-01-29T17:08:00.125Z,102053.72
2023-01-29T17:10:26.481Z,102061.88
2023-01-29T17:12:52.860Z,102056.84
2023-01-29T17:15:19.543Z,102057.22
2023-01-29T17:17:46.132Z,102068.84
2023-01-29T17:20:12.491Z,102068.50
2023-01-29T17:22:38.860Z,102068.47
2023-01-29T17:25:05.214Z,102074.28
2023-01-29T17:27:31.592Z,102066.53
2023-01-29T17:29:57.979Z,102071.97
2023-01-29T17:32:24.342Z,102073.50
2023-01-29T17:34:50.738Z,102075.84
2023-01-29T17:37:17.170Z,102069.66
2023-01-29T17:39:43.566Z,102076.22
2023-01-29T17:42:10.001Z,102080.88
2023-01-29T17:44:36.387Z,102076.22
2023-01-29T17:47:02.741Z,102068.84
2023-01-29T17:49:29.108Z,102065.78
2023-01-29T17:51:55.520Z,102071.94
2023-01-29T17:54:21.898Z,102066.13
2023-01-29T17:56:48.272Z,102068.06
2023-01-29T17:59:14.656Z,102079.72
2023-01-29T18:01:41.042Z,102079.72
2023-01-29T18:04:07.531Z,102071.94
2023-01-29T18:06:33.962Z,102064.56
2023-01-29T18:09:00.351Z,102066.50
2023-01-29T18:11:26.726Z,102059.13
2023-01-29T18:13:53.089Z,102056.41
2023-01-29T18:16:23.922Z,102061.47
2023-01-29T18:18:50.377Z,102051.78
2023-01-29T18:21:16.829Z,102049.47
2023-01-29T18:23:43.176Z,102045.97
2023-01-29T18:26:09.572Z,102042.84
2023-01-29T18:28:35.993Z,102045.97
2023-01-29T18:31:02.555Z,102045.53
2023-01-29T18:33:28.976Z,102041.31
2023-01-29T18:35:55.365Z,102041.72
2023-01-29T18:38:21.721Z,102032.41
2023-01-29T18:40:48.313Z,102033.94
2023-01-29T18:43:14.691Z,102031.63
2023-01-29T18:45:41.091Z,102039.75
2023-01-29T18:48:07.502Z,102049.06
2023-01-29T18:50:33.877Z,102048.28
2023-01-29T18:53:00.268Z,102041.31
2023-01-29T18:55:26.659Z,102038.19
2023-01-29T18:58:33.466Z,102035.09
2023-01-29T19:00:39.483Z,102037.03
2023-01-29T19:03:05.906Z,102029.28
2023-01-29T19:05:32.272Z,102039.75
2023-01-29T19:07:58.656Z,102035.47
2023-01-29T19:10:25.043Z,102040.53
2023-01-29T19:12:51.406Z,102031.19
2023-01-29T19:15:18.100Z,102023.03
2023-01-29T19:17:44.666Z,102023.03
2023-01-29T19:20:11.064Z,102019.16
2023-01-29T19:22:37.448Z,102020.75
2023-01-29T19:25:03.801Z,102012.97
2023-01-29T19:27:30.167Z,102009.13
2023-01-29T19:29:56.571Z,102007.53
2023-01-29T19:32:22.940Z,102005.59
2023-01-29T19:34:49.302Z,102002.91
2023-01-29T19:37:15.775Z,101994.72
2023-01-29T19:39:42.134Z,101995.47
2023-01-29T19:42:08.517Z,101995.50
2023-01-29T19:44:34.944Z,101985.06
2023-01-29T19:47:02.420Z,101983.50
2023-01-29T19:49:28.986Z,101977.59
2023-01-29T19:51:55.376Z,101976.06
2023-01-29T19:54:21.738Z,101984.25
2023-01-29T19:56:48.068Z,101986.22
2023-01-29T19:59:14.442Z,101986.97
2023-01-29T20:01:40.868Z,101985.00
2023-01-29T20:04:07.247Z,101974.94
2023-01-29T20:06:33.685Z,101967.56
2023-01-29T20:09:00.108Z,101973.41
2023-01-29T20:11:26.468Z,101966.44
2023-01-29T20:13:52.867Z,101964.09
2023-01-29T20:16:19.296Z,101969.47
2023-01-29T20:18:45.714Z,101973.41
2023-01-29T20:21:12.071Z,101968.34
2023-01-29T20:23:38.916Z,101976.47
2023-01-29T20:26:05.347Z,101978.06
2023-01-29T20:28:31.753Z,101979.59
2023-01-29T20:30:58.249Z,101975.34
2023-01-29T20:33:24.781Z,101981.16
2023-01-29T20:35:51.175Z,101981.94
2023-01-29T20:38:17.563Z,101995.91
2023-01-29T20:40:43.926Z,101990.44
2023-01-29T20:43:10.317Z,101995.13
2023-01-29T20:45:36.679Z,101982.72
2023-01-29T20:48:03.079Z,101983.84
2023-01-29T20:50:29.486Z,101976.13
2023-01-29T20:52:55.852Z,101967.19
2023-01-29T20:55:22.269Z,101967.94
2023-01-29T20:58:05.188Z,101967.94
2023-01-29T21:00:33.075Z,101971.06
2023-01-29T21:02:59.505Z,101967.97
2023-01-29T21:05:25.880Z,101967.94
2023-01-29T21:07:52.231Z,101957.47
2023-01-29T21:10:18.917Z,101954.78
2023-01-29T21:12:45.455Z,101959.41
2023-01-29T21:15:11.796Z,101957.09
2023-01-29T21:17:38.161Z,101956.69
2023-01-29T21:20:04.551Z,101959.03
2023-01-29T21:22:30.900Z,101962.56
2023-01-29T21:24:57.254Z,101958.25
2023-01-29T21:27:23.638Z,101964.88
2023-01-29T21:29:49.996Z,101960.97
2023-01-29T21:32:16.392Z,101967.56
2023-01-29T21:34:42.771Z,101956.31
2023-01-29T21:37:09.151Z,101967.97
2023-01-29T21:39:35.534Z,101966.00
2023-01-29T21:42:01.935Z,101962.13
2023-01-29T21:44:28.290Z,101977.25
2023-01-29T21:46:54.670Z,101969.09
2023-01-29T21:49:21.065Z,101962.09
2023-01-29T21:51:47.430Z,101956.31
2023-01-29T21:54:13.800Z,101954.75
2023-01-29T21:56:40.186Z,101940.78
2023-01-29T21:59:06.546Z,101942.69
2023-01-29T22:01:37.469Z,101935.69
2023-01-29T22:04:04.910Z,101930.66
2023-01-29T22:06:31.269Z,101928.72
2023-01-29T22:08:57.630Z,101929.53
2023-01-29T22:11:24.186Z,101934.56
2023-01-29T22:13:50.636Z,101942.28
2023-01-29T22:16:17.015Z,101938.47
2023-01-29T22:18:43.380Z,101933.03
2023-01-29T22:21:09.742Z,101934.56
2023-01-29T22:23:36.123Z,101921.34
2023-01-29T22:26:02.537Z,101921.75
2023-01-29T22:28:28.921Z,101914.41
2023-01-29T22:30:55.334Z,101931.81
2023-01-29T22:33:21.754Z,101940.78
2023-01-29T22:35:48.137Z,101929.06
2023-01-29T22:38:14.512Z,101922.91
2023-01-29T22:40:40.885Z,101931.06
2023-01-29T22:43:07.265Z,101933.00
2023-01-29T22:45:33.628Z,101933.75
2023-01-29T22:48:00.002Z,101939.22
2023-01-29T22:50:26.375Z,101944.66
2023-01-29T22:52:52.751Z,101957.41
2023-01-29T22:55:19.115Z,101961.31
2023-01-29T22:57:45.483Z,101956.66
2023-01-29T23:00:11.858Z,101970.25
2023-01-29T23:02:38.235Z,101965.22
2023-01-29T23:05:04.605Z,101953.94
2023-01-29T23:07:31.072Z,101958.59
2023-01-29T23:09:57.423Z,101969.44
2023-01-29T23:12:23.776Z,101973.72
2023-01-29T23:14:50.155Z,101971.81
2023-01-29T23:17:16.496Z,101991.94
2023-01-29T23:19:42.980Z,101993.53
2023-01-29T23:22:09.375Z,101998.16
2023-01-29T23:24:35.788Z,101988.81
2023-01-29T23:27:02.263Z,101981.84
2023-01-29T23:29:28.635Z,101979.16
2023-01-29T23:31:55.019Z,101969.44
2023-01-29T23:34:21.494Z,101958.22
2023-01-29T23:36:47.871Z,101958.56
2023-01-29T23:39:14.235Z,101957.41
2023-01-29T23:41:40.660Z,101949.63
2023-01-29T23:44:07.017Z,101931.41
2023-01-29T23:46:33.385Z,101934.56
2023-01-29T23:48:59.776Z,101927.16
2023-01-29T23:51:26.148Z,101906.19
2023-01-29T23:53:52.507Z,101909.69
2023-01-29T23:56:18.883Z,101908.16
2023-01-29T23:58:45.258Z,101929.88
